Time;durP1;ratioP1;P1;durP2;ratioP2;P2;SDS_P1;SDS_P2;PMS_P1;PMS_P2;Temp;Humidity;BMP_temperature;BMP_pressure;BME280_temperature;BME280_humidity;BME280_pressure;Samples;Min_cycle;Max_cycle;Signal;HPM_P1;HPM_P2
2022/07/14 00:00:46;;;;;;;7.47;2.63;;;;;;;23.10;49.70;102009.84;5113673;28;20477;-73
2022/07/14 00:03:15;;;;;;;9.23;2.63;;;;;;;23.11;49.75;102012.31;5108842;28;20105;-73
2022/07/14 00:05:43;;;;;;;8.50;2.03;;;;;;;23.08;49.61;102009.31;5096866;28;20112;-73
2022/07/14 00:08:11;;;;;;;9.13;2.30;;;;;;;23.09;49.68;102008.19;5109833;28;20056;-73
2022/07/14 00:10:39;;;;;;;10.10;2.35;;;;;;;23.01;49.59;102006.84;5104389;28;20066;-73
2022/07/14 00:13:07;;;;;;;5.22;1.67;;;;;;;23.06;49.64;102017.81;5111828;28;20044;-73
2022/07/14 00:15:34;;;;;;;7.22;2.50;;;;;;;23.05;49.29;101999.72;5112915;28;20081;-73
2022/07/14 00:18:02;;;;;;;5.78;1.80;;;;;;;22.74;49.30;101942.16;5094241;28;20059;-74
2022/07/14 00:20:32;;;;;;;9.35;2.47;;;;;;;23.00;49.14;101975.03;5110391;28;20044;-73
2022/07/14 00:23:02;;;;;;;4.93;1.83;;;;;;;23.01;49.33;101971.19;5095468;28;20482;-73
2022/07/14 00:25:30;;;;;;;8.80;2.03;;;;;;;22.98;49.42;101964.34;5105790;28;20488;-73
2022/07/14 00:27:58;;;;;;;9.00;2.20;;;;;;;22.92;49.65;101972.88;5108024;28;20053;-73
2022/07/14 00:30:26;;;;;;;6.82;1.83;;;;;;;22.95;49.60;101986.03;5117173;28;20517;-73
2022/07/14 00:32:55;;;;;;;8.75;2.83;;;;;;;22.94;49.61;101987.13;5097778;28;20101;-73
2022/07/14 00:35:22;;;;;;;8.13;2.50;;;;;;;22.88;49.66;101980.81;5107415;28;20496;-72
2022/07/14 00:37:51;;;;;;;6.43;2.00;;;;;;;22.88;49.65;101982.75;5111751;28;20040;-73
2022/07/14 00:40:19;;;;;;;7.80;2.45;;;;;;;22.90;49.48;101997.81;5103986;28;20063;-73
2022/07/14 00:42:49;;;;;;;6.10;1.90;;;;;;;22.87;49.25;102000.28;5104239;28;20050;-73
2022/07/14 00:45:19;;;;;;;7.07;1.92;;;;;;;22.86;49.33;101995.91;5124333;28;20052;-73
2022/07/14 00:47:47;;;;;;;7.00;1.60;;;;;;;22.84;49.42;101996.19;5109805;28;20109;-73
2022/07/14 00:50:17;;;;;;;5.10;1.70;;;;;;;22.82;49.27;102003.03;5119606;28;20063;-73
2022/07/14 00:52:47;;;;;;;5.25;2.05;;;;;;;22.82;49.72;102009.34;5115589;28;20039;-73
2022/07/14 00:55:18;;;;;;;7.15;2.30;;;;;;;22.75;49.45;102000.53;5120293;28;20044;-73
2022/07/14 00:57:47;;;;;;;7.80;1.95;;;;;;;22.78;49.70;102010.13;5102828;28;20051;-71
2022/07/14 01:00:16;;;;;;;7.53;2.30;;;;;;;22.75;49.61;102008.75;5113799;28;20044;-72
2022/07/14 01:02:45;;;;;;;6.70;1.85;;;;;;;22.74;49.55;102007.13;5114165;28;20374;-72
2022/07/14 01:05:13;;;;;;;9.35;2.78;;;;;;;22.66;49.79;102008.50;5107451;28;20043;-72
2022/07/14 01:07:41;;;;;;;12.88;2.53;;;;;;;22.65;49.71;102015.06;5109884;28;20324;-72
2022/07/14 01:10:10;;;;;;;6.85;2.28;;;;;;;22.67;49.76;102010.13;5107413;28;20068;-72
2022/07/14 01:12:44;;;;;;;9.07;2.28;;;;;;;22.65;49.66;102009.59;5111702;28;20059;-72
2022/07/14 01:15:13;;;;;;;6.93;2.10;;;;;;;22.61;49.90;102015.91;5107683;28;20048;-72
2022/07/14 01:17:41;;;;;;;10.63;2.38;;;;;;;22.61;49.87;102027.69;5111736;28;20052;-73
2022/07/14 01:20:10;;;;;;;13.32;2.83;;;;;;;22.58;49.91;102022.75;5106385;28;20060;-72
2022/07/14 01:22:39;;;;;;;7.75;2.22;;;;;;;22.57;49.91;102028.50;5096270;28;20045;-72
2022/07/14 01:25:08;;;;;;;7.25;2.13;;;;;;;22.56;50.13;102029.59;5112929;28;20050;-72
2022/07/14 01:27:36;;;;;;;8.43;2.42;;;;;;;22.55;49.95;102034.25;5114397;28;20104;-72
2022/07/14 01:30:05;;;;;;;8.65;2.83;;;;;;;22.53;50.23;102021.94;5124622;28;20096;-72
2022/07/14 01:32:34;;;;;;;9.80;3.10;;;;;;;22.51;50.32;102016.75;5104173;28;20043;-72
2022/07/14 01:35:02;;;;;;;6.00;2.03;;;;;;;22.37;50.29;101991.81;5107035;28;20482;-72
2022/07/14 01:37:29;;;;;;;8.90;2.28;;;;;;;22.48;50.29;102009.06;5109687;28;20093;-72
2022/07/14 01:39:59;;;;;;;8.50;2.63;;;;;;;22.47;50.34;102009.34;5102246;28;20047;-72
2022/07/14 01:42:26;;;;;;;12.02;3.25;;;;;;;22.38;50.32;101995.38;5101811;28;20429;-71
2022/07/14 01:44:54;;;;;;;8.38;2.47;;;;;;;22.44;50.19;102007.16;5115389;28;20040;-72
2022/07/14 01:47:22;;;;;;;7.80;2.60;;;;;;;22.40;50.26;102004.97;5110859;28;20062;-72
2022/07/14 01:49:50;;;;;;;10.23;3.08;;;;;;;22.34;50.24;101995.09;5101118;28;20110;-72
2022/07/14 01:52:17;;;;;;;14.40;2.58;;;;;;;22.35;50.25;102006.88;5103789;28;20051;-72
2022/07/14 01:54:45;;;;;;;7.45;2.58;;;;;;;22.34;50.47;102006.03;5115697;28;20044;-72
2022/07/14 01:57:14;;;;;;;10.52;2.67;;;;;;;22.32;50.49;102007.41;5108332;28;20048;-72
2022/07/14 01:59:42;;;;;;;9.18;2.70;;;;;;;22.32;50.41;101999.19;5108110;28;20072;-72
2022/07/14 02:02:10;;;;;;;11.30;3.15;;;;;;;22.30;50.49;101998.66;5110083;28;20066;-72
2022/07/14 02:04:38;;;;;;;6.47;2.08;;;;;;;22.28;50.52;101998.09;5121368;28;20105;-72
2022/07/14 02:07:06;;;;;;;9.27;2.75;;;;;;;22.24;50.53;101994.25;5107902;28;20493;-73
2022/07/14 02:12:20;;;;;;;11.10;3.45;;;;;;;22.19;50.77;101997.00;5101313;28;20109;-72
2022/07/14 02:14:48;;;;;;;12.23;2.47;;;;;;;22.20;51.06;102004.94;5103787;28;20055;-72
2022/07/14 02:17:16;;;;;;;11.73;2.70;;;;;;;22.20;50.61;102015.06;5115506;28;20102;-71
2022/07/14 02:19:43;;;;;;;13.68;3.05;;;;;;;22.18;50.63;102012.59;5104921;28;20048;-72
2022/07/14 02:22:11;;;;;;;7.78;2.20;;;;;;;22.16;50.80;102020.25;5121012;28;20044;-72
2022/07/14 02:24:39;;;;;;;5.15;2.30;;;;;;;22.12;50.77;102008.19;5114098;28;20048;-71
2022/07/14 02:27:07;;;;;;;6.28;2.65;;;;;;;22.14;50.74;102007.94;5114873;28;20047;-72
2022/07/14 02:29:36;;;;;;;10.77;2.83;;;;;;;22.10;50.75;101998.63;5106184;28;20062;-72
2022/07/14 02:32:06;;;;;;;8.73;3.17;;;;;;;22.11;50.76;102003.81;5105164;28;20385;-72
2022/07/14 02:34:33;;;;;;;10.48;2.95;;;;;;;22.08;50.96;101996.97;5100532;28;20060;-72
2022/07/14 02:37:01;;;;;;;7.35;2.22;;;;;;;21.98;51.20;101976.94;5108806;28;20063;-72
2022/07/14 02:39:29;;;;;;;7.43;2.50;;;;;;;22.03;50.85;101985.19;5091759;28;20078;-71
2022/07/14 02:41:57;;;;;;;11.43;2.33;;;;;;;22.01;51.07;101987.34;5106599;28;20048;-71
2022/07/14 02:44:25;;;;;;;11.38;2.67;;;;;;;22.03;50.87;101985.19;5111685;28;20044;-71
2022/07/14 02:46:54;;;;;;;11.85;3.45;;;;;;;22.02;50.76;101980.81;5121309;28;20055;-72
2022/07/14 02:49:22;;;;;;;9.23;2.50;;;;;;;21.88;51.01;101960.50;5101025;28;20052;-72
2022/07/14 02:51:49;;;;;;;10.00;2.83;;;;;;;21.99;50.85;101975.84;5101051;28;20048;-73
2022/07/14 02:54:17;;;;;;;8.35;3.17;;;;;;;21.96;51.03;101981.84;5106355;28;20047;-72
2022/07/14 02:56:45;;;;;;;11.70;2.67;;;;;;;21.93;51.17;101975.00;5107393;28;20048;-72
2022/07/14 02:59:13;;;;;;;10.85;2.78;;;;;;;21.92;51.16;101976.09;5101130;28;20048;-72
2022/07/14 03:01:41;;;;;;;10.32;2.80;;;;;;;21.90;50.87;101980.19;5100618;28;20044;-72
2022/07/14 03:04:10;;;;;;;9.38;2.55;;;;;;;21.89;51.04;101973.09;5111908;28;20107;-73
2022/07/14 03:06:38;;;;;;;7.47;2.72;;;;;;;21.82;51.18;101967.88;5128057;28;20052;-72
2022/07/14 03:09:06;;;;;;;12.98;3.20;;;;;;;21.83;51.05;101965.94;5111120;28;20075;-73
2022/07/14 03:11:34;;;;;;;10.80;2.92;;;;;;;21.80;51.15;101972.78;5105159;28;20051;-73
2022/07/14 03:14:01;;;;;;;9.40;3.10;;;;;;;21.78;51.14;101966.75;5109768;28;20055;-72
2022/07/14 03:16:29;;;;;;;9.23;2.58;;;;;;;21.76;51.09;101967.03;5119439;28;20119;-72
2022/07/14 03:18:57;;;;;;;11.57;2.50;;;;;;;21.73;51.27;101969.47;5086725;28;20493;-73
2022/07/14 03:21:26;;;;;;;11.60;3.28;;;;;;;21.71;51.25;101958.81;5118595;28;20063;-73
2022/07/14 03:23:54;;;;;;;8.10;3.10;;;;;;;21.69;51.24;101957.44;5102649;28;20040;-72
2022/07/14 03:26:22;;;;;;;12.02;3.10;;;;;;;21.68;51.19;101953.03;5118754;28;20315;-72
2022/07/14 03:28:49;;;;;;;9.75;2.47;;;;;;;21.59;51.18;101938.25;5106078;28;20051;-71
2022/07/14 03:31:17;;;;;;;10.07;3.03;;;;;;;21.59;51.23;101941.81;5121459;28;20047;-71
2022/07/14 03:33:45;;;;;;;11.82;3.00;;;;;;;21.63;51.28;101951.13;5119184;28;20048;-73
2022/07/14 03:36:13;;;;;;;11.50;3.25;;;;;;;21.60;51.23;101959.88;5112770;28;20449;-72
2022/07/14 03:38:42;;;;;;;12.27;2.80;;;;;;;21.60;51.26;101959.03;5105605;28;20060;-73
2022/07/14 03:41:10;;;;;;;12.43;3.58;;;;;;;21.59;51.34;101966.44;5104464;28;20052;-73
2022/07/14 03:43:39;;;;;;;8.30;2.85;;;;;;;21.57;51.23;101965.03;5094846;28;20191;-73
2022/07/14 03:46:07;;;;;;;9.80;3.40;;;;;;;21.55;51.27;101964.50;5109997;28;20089;-73
2022/07/14 03:48:35;;;;;;;10.13;3.28;;;;;;;21.55;51.27;101962.59;5122359;28;20093;-72
2022/07/14 03:51:03;;;;;;;9.85;3.15;;;;;;;21.55;51.31;101964.50;5102917;28;20118;-72
2022/07/14 03:53:32;;;;;;;9.90;2.65;;;;;;;21.53;51.27;101970.22;5098965;28;20040;-72
2022/07/14 03:56:01;;;;;;;13.50;3.17;;;;;;;21.53;51.22;101977.63;5106185;28;20056;-72
2022/07/14 03:58:29;;;;;;;8.50;2.88;;;;;;;21.52;51.14;101985.00;5099273;28;20040;-72
2022/07/14 04:00:57;;;;;;;8.77;2.53;;;;;;;21.51;51.14;101983.34;5096149;28;20063;-73
2022/07/14 04:03:25;;;;;;;12.02;3.25;;;;;;;21.50;51.16;101976.25;5120880;28;20381;-72
2022/07/14 04:05:52;;;;;;;11.60;2.47;;;;;;;21.48;51.01;101981.16;5116468;28;20071;-73
2022/07/14 04:08:20;;;;;;;11.63;3.33;;;;;;;21.46;51.22;101983.34;5102341;28;20063;-72
2022/07/14 04:10:48;;;;;;;10.60;4.43;;;;;;;21.43;51.07;101990.16;5124095;28;20044;-73
2022/07/14 04:13:18;;;;;;;7.70;2.50;;;;;;;21.46;51.18;101998.91;5121122;28;20056;-72
2022/07/14 04:15:45;;;;;;;10.48;2.78;;;;;;;21.42;51.37;101996.72;5117824;28;20047;-72
2022/07/14 04:18:14;;;;;;;8.70;3.10;;;;;;;21.43;51.21;101994.81;5107905;28;20553;-74
2022/07/14 04:20:48;;;;;;;7.00;2.75;;;;;;;21.40;51.16;101995.34;5127910;28;20112;-74
2022/07/14 04:23:16;;;;;;;12.02;3.75;;;;;;;21.38;51.24;102003.81;5096896;28;21270;-72
2022/07/14 04:25:44;;;;;;;10.10;3.30;;;;;;;21.34;51.13;101996.41;5110043;28;20040;-72
2022/07/14 04:28:11;;;;;;;10.07;3.05;;;;;;;21.35;51.23;101995.31;5115673;28;20109;-72
2022/07/14 04:30:41;;;;;;;12.38;2.60;;;;;;;21.34;51.21;101985.47;5111726;28;20044;-73
2022/07/14 04:33:09;;;;;;;10.77;3.40;;;;;;;21.31;51.28;101983.25;5103484;28;20070;-72
2022/07/14 04:35:37;;;;;;;9.82;2.55;;;;;;;21.27;51.22;101977.50;5105054;28;20135;-72
2022/07/14 04:38:05;;;;;;;10.63;2.55;;;;;;;21.27;51.29;101974.78;5100753;28;20523;-72
2022/07/14 04:40:33;;;;;;;7.20;2.78;;;;;;;21.22;51.48;101972.00;5104383;28;20051;-72
2022/07/14 04:43:01;;;;;;;10.05;2.83;;;;;;;21.23;51.37;101970.09;5104365;28;20048;-72
2022/07/14 04:45:29;;;;;;;9.55;3.30;;;;;;;21.25;51.35;101970.66;5104545;28;20125;-72
2022/07/14 04:47:58;;;;;;;10.68;2.33;;;;;;;21.22;51.48;101961.06;5097123;28;20051;-72
2022/07/14 04:53:12;;;;;;;8.93;2.80;;;;;;;21.21;51.40;101969.50;5105069;28;20051;-73
2022/07/14 04:55:40;;;;;;;8.82;3.30;;;;;;;21.13;51.38;101949.78;5103093;28;20111;-72
2022/07/14 04:58:08;;;;;;;9.50;2.70;;;;;;;21.17;51.45;101961.00;5097519;28;20068;-73
2022/07/14 05:00:36;;;;;;;11.18;2.97;;;;;;;21.13;51.31;101957.97;5104100;28;20051;-72
2022/07/14 05:03:06;;;;;;;9.98;2.38;;;;;;;21.15;51.53;101967.84;5104535;28;20048;-75
2022/07/14 05:05:34;;;;;;;6.72;2.58;;;;;;;21.13;51.44;101974.38;5102825;28;20082;-74
2022/07/14 05:08:02;;;;;;;10.35;3.13;;;;;;;21.14;51.34;101983.41;5105325;28;20067;-73
2022/07/14 05:10:29;;;;;;;10.32;3.22;;;;;;;21.13;51.41;101982.59;5104974;28;20366;-71
2022/07/14 05:12:57;;;;;;;8.85;3.05;;;;;;;21.02;51.19;101966.41;5100046;28;20048;-72
2022/07/14 05:15:25;;;;;;;11.55;3.67;;;;;;;21.12;51.12;101986.41;5105072;28;20535;-71
2022/07/14 05:17:53;;;;;;;10.63;3.05;;;;;;;21.13;51.24;101988.06;5104992;28;20074;-76
2022/07/14 05:20:22;;;;;;;9.23;2.67;;;;;;;21.14;51.22;101988.88;5104289;28;20152;-74
2022/07/14 05:22:50;;;;;;;6.93;2.30;;;;;;;21.12;51.20;101980.94;5101641;28;20051;-76
2022/07/14 05:25:18;;;;;;;7.65;2.45;;;;;;;21.01;51.06;101960.09;5098617;28;20048;-72
2022/07/14 05:27:46;;;;;;;10.15;3.03;;;;;;;21.15;51.10;101976.84;5099358;28;20067;-75
2022/07/14 05:30:14;;;;;;;7.25;2.53;;;;;;;21.16;51.11;101975.78;5103517;28;20052;-72
2022/07/14 05:32:41;;;;;;;7.82;2.53;;;;;;;21.18;51.17;101975.50;5102863;28;20052;-75
2022/07/14 05:35:10;;;;;;;11.02;2.95;;;;;;;21.20;51.14;101979.63;5104993;28;20047;-74
2022/07/14 05:37:39;;;;;;;9.77;2.80;;;;;;;21.23;51.21;101981.84;5125203;28;20051;-73
2022/07/14 05:40:08;;;;;;;14.45;3.90;;;;;;;21.21;50.96;101974.97;5124992;28;20100;-74
2022/07/14 05:42:35;;;;;;;8.88;2.67;;;;;;;21.26;51.01;101981.31;5110737;28;20228;-76
2022/07/14 05:45:03;;;;;;;8.73;2.28;;;;;;;21.30;51.02;101985.16;5108792;28;20039;-75
2022/07/14 05:47:31;;;;;;;9.27;2.80;;;;;;;21.32;51.16;101984.91;5107607;28;20059;-70
2022/07/14 05:49:59;;;;;;;5.25;1.52;;;;;;;21.35;51.02;101987.13;4741525;28;10000514;-71
2022/07/14 05:52:30;;;;;;;8.00;2.80;;;;;;;21.37;51.28;101979.47;5097990;28;20075;-73
2022/07/14 05:55:00;;;;;;;8.30;2.45;;;;;;;21.39;51.29;101985.50;5106491;28;20078;-72
2022/07/14 05:57:28;;;;;;;8.68;2.58;;;;;;;21.41;51.04;101986.03;5111715;28;20493;-74
2022/07/14 05:59:59;;;;;;;7.38;3.15;;;;;;;21.42;51.00;101991.25;5103787;28;20044;-73
2022/07/14 06:02:26;;;;;;;9.25;1.90;;;;;;;21.43;51.10;101995.63;5104365;28;20056;-74
2022/07/14 06:04:54;;;;;;;7.72;2.75;;;;;;;21.44;51.12;101993.72;5113285;28;20048;-73
2022/07/14 06:07:22;;;;;;;7.22;2.40;;;;;;;21.44;50.85;101997.28;5112273;28;20052;-74
2022/07/14 06:09:50;;;;;;;7.10;2.30;;;;;;;21.45;51.01;101976.22;5114873;28;20052;-75
2022/07/14 06:12:19;;;;;;;8.57;2.17;;;;;;;21.44;51.12;101972.66;5113776;28;20497;-71
2022/07/14 06:14:47;;;;;;;10.80;2.72;;;;;;;21.47;51.02;101967.75;5102176;28;20044;-72
2022/07/14 06:17:16;;;;;;;9.27;2.50;;;;;;;21.47;51.11;101963.09;5115577;28;20151;-73
2022/07/14 06:19:44;;;;;;;9.73;2.70;;;;;;;21.48;51.06;101969.38;5117819;28;20056;-73
2022/07/14 06:22:12;;;;;;;6.20;2.05;;;;;;;21.48;51.11;101969.38;5102180;28;20052;-74
2022/07/14 06:24:41;;;;;;;8.50;2.53;;;;;;;21.46;50.98;101969.66;5106055;28;20071;-72
2022/07/14 06:27:14;;;;;;;11.27;3.00;;;;;;;21.46;50.83;101968.84;5111388;28;20098;-73
2022/07/14 06:29:43;;;;;;;15.57;3.08;;;;;;;21.48;51.21;101980.34;5103164;28;20044;-74
2022/07/14 06:32:11;;;;;;;12.77;3.28;;;;;;;21.48;51.19;101978.41;5115240;28;20071;-72
2022/07/14 06:34:39;;;;;;;8.00;2.40;;;;;;;21.48;51.05;101963.91;5120398;28;20040;-73
2022/07/14 06:37:07;;;;;;;14.00;3.38;;;;;;;21.47;51.04;101974.03;5103949;28;20093;-72
2022/07/14 06:39:35;;;;;;;8.10;2.42;;;;;;;21.44;51.14;101966.38;5101206;28;20056;-72
2022/07/14 06:42:03;;;;;;;7.65;3.17;;;;;;;21.42;51.16;101968.53;5113459;28;20374;-73
2022/07/14 06:44:31;;;;;;;12.07;3.35;;;;;;;21.49;51.17;101971.84;5115816;28;20055;-72
2022/07/14 06:47:01;;;;;;;6.88;2.80;;;;;;;21.51;51.18;101982.53;5097879;28;20045;-73
2022/07/14 06:49:29;;;;;;;10.57;3.28;;;;;;;21.55;51.06;101991.84;5109867;28;20047;-73
2022/07/14 06:51:57;;;;;;;11.85;2.83;;;;;;;21.55;50.88;101981.72;5124702;28;20052;-73
2022/07/14 06:54:25;;;;;;;11.13;2.63;;;;;;;21.57;50.82;101978.72;5105380;28;20074;-72
2022/07/14 06:56:53;;;;;;;11.23;2.80;;;;;;;21.57;50.54;101981.47;5109000;28;20420;-72
2022/07/14 06:59:21;;;;;;;14.20;2.80;;;;;;;21.57;50.67;101978.72;5094218;28;20074;-72
2022/07/14 07:01:49;;;;;;;11.52;2.75;;;;;;;21.54;50.68;101976.53;5109218;28;20114;-72
2022/07/14 07:04:18;;;;;;;9.27;2.42;;;;;;;21.60;50.58;101981.75;5115408;28;20048;-73
2022/07/14 07:06:53;;;;;;;12.07;2.72;;;;;;;21.56;51.03;101971.59;5123302;28;20059;-73
2022/07/14 07:09:21;;;;;;;7.13;1.90;;;;;;;21.62;50.39;101973.28;5123828;28;20064;-73
2022/07/14 07:11:50;;;;;;;9.80;2.45;;;;;;;21.64;50.50;101976.56;5099240;28;20425;-73
2022/07/14 07:14:18;;;;;;;6.40;2.10;;;;;;;21.64;50.50;101976.56;5120134;28;20040;-73
2022/07/14 07:16:46;;;;;;;9.57;2.83;;;;;;;21.60;50.47;101967.25;5105294;28;20185;-73
2022/07/14 07:19:15;;;;;;;12.15;2.78;;;;;;;21.59;50.24;101973.81;5127224;28;20056;-73
2022/07/14 07:21:44;;;;;;;7.38;2.03;;;;;;;21.65;50.32;101973.56;5106026;28;20044;-72
2022/07/14 07:24:12;;;;;;;9.13;2.47;;;;;;;21.65;50.41;101978.22;5103660;28;20126;-73
2022/07/14 07:26:41;;;;;;;6.88;2.22;;;;;;;21.65;50.32;101981.78;5100556;28;20119;-73
2022/07/14 07:29:09;;;;;;;9.10;2.17;;;;;;;21.66;50.35;101979.84;5113397;28;20101;-73
2022/07/14 07:31:37;;;;;;;11.77;2.55;;;;;;;21.64;50.07;101973.81;5127176;28;20490;-73
2022/07/14 07:34:05;;;;;;;8.25;2.60;;;;;;;21.63;49.95;101974.91;5126949;28;20424;-73
2022/07/14 07:36:33;;;;;;;9.43;2.20;;;;;;;21.63;49.78;101972.19;5114362;28;20113;-73
2022/07/14 07:39:02;;;;;;;10.60;3.05;;;;;;;21.60;49.92;101968.06;5126918;28;20480;-73
2022/07/14 07:41:30;;;;;;;7.18;2.22;;;;;;;21.61;49.76;101966.97;5106666;28;20073;-73
2022/07/14 07:43:58;;;;;;;11.80;2.95;;;;;;;21.60;49.82;101961.78;5105508;28;20154;-73
2022/07/14 07:46:26;;;;;;;12.45;2.80;;;;;;;21.61;49.71;101963.41;5105893;28;20110;-72
2022/07/14 07:48:54;;;;;;;8.38;2.60;;;;;;;21.62;50.06;101954.13;5105210;28;20063;-72
2022/07/14 07:51:23;;;;;;;8.65;2.53;;;;;;;21.62;49.99;101951.38;5115449;28;20114;-72
2022/07/14 07:53:51;;;;;;;10.15;2.95;;;;;;;21.60;50.01;101943.44;5107584;28;20514;-73
2022/07/14 07:56:20;;;;;;;6.90;2.15;;;;;;;21.66;50.12;101941.53;5104761;28;20055;-72
2022/07/14 07:58:48;;;;;;;7.43;2.80;;;;;;;21.67;50.20;101945.94;5126454;28;20051;-74
2022/07/14 08:01:16;;;;;;;7.95;2.50;;;;;;;21.68;49.95;101950.31;5110363;28;20082;-73
2022/07/14 08:03:44;;;;;;;8.57;2.53;;;;;;;21.69;49.93;101943.75;5108009;28;20090;-74
2022/07/14 08:06:12;;;;;;;10.00;2.58;;;;;;;21.69;49.88;101943.75;5109877;28;20130;-73
2022/07/14 08:09:00;;;;;;;8.63;2.70;;;;;;;21.69;49.74;101936.34;5126605;28;20115;-73
2022/07/14 08:11:29;;;;;;;6.28;2.08;;;;;;;21.68;49.90;101929.25;5115565;28;20439;-74
2022/07/14 08:13:57;;;;;;;9.20;2.78;;;;;;;21.70;49.74;101935.25;5105957;28;20048;-73
2022/07/14 08:16:25;;;;;;;10.20;3.00;;;;;;;21.71;49.76;101928.69;5108770;28;20054;-74
2022/07/14 08:18:53;;;;;;;9.30;2.90;;;;;;;21.72;49.81;101929.53;5126274;28;20056;-73
2022/07/14 08:21:21;;;;;;;8.15;2.60;;;;;;;21.74;49.74;101922.69;5098675;28;20052;-73
2022/07/14 08:23:50;;;;;;;7.68;2.63;;;;;;;21.72;49.65;101926.78;5113062;28;20078;-73
2022/07/14 08:26:18;;;;;;;8.65;2.40;;;;;;;21.76;49.65;101925.16;5107916;28;20051;-73
2022/07/14 08:28:47;;;;;;;9.40;2.70;;;;;;;21.75;49.43;101915.31;5123642;28;20055;-73
2022/07/14 08:31:15;;;;;;;7.75;2.30;;;;;;;21.79;49.49;101919.16;5097646;28;20070;-73
2022/07/14 08:33:43;;;;;;;8.38;2.92;;;;;;;21.69;49.59;101894.50;5110249;28;20048;-73
2022/07/14 08:36:10;;;;;;;8.25;2.20;;;;;;;21.84;49.63;101927.38;5114830;28;20043;-73
2022/07/14 08:38:38;;;;;;;7.50;2.78;;;;;;;21.85;49.56;101918.06;5118128;28;20073;-72
2022/07/14 08:41:08;;;;;;;10.10;2.50;;;;;;;21.88;49.49;101908.47;5124070;28;20047;-73
2022/07/14 08:43:37;;;;;;;10.00;2.42;;;;;;;21.87;49.60;101913.13;5111624;28;20048;-73
2022/07/14 08:46:06;;;;;;;6.38;2.63;;;;;;;21.90;49.14;101917.25;5114926;28;20040;-73
2022/07/14 08:48:34;;;;;;;6.13;2.65;;;;;;;21.78;49.05;101895.59;5115850;28;20126;-73
2022/07/14 08:51:02;;;;;;;7.90;3.03;;;;;;;21.89;48.83;101913.69;5108830;28;20139;-72
2022/07/14 08:53:32;;;;;;;9.82;2.70;;;;;;;21.91;48.70;101921.63;5114164;28;20048;-72
2022/07/14 08:56:00;;;;;;;5.25;1.90;;;;;;;21.90;48.47;101914.50;5109450;28;20082;-72
2022/07/14 08:58:27;;;;;;;6.53;2.42;;;;;;;21.91;48.32;101924.38;5117543;28;20055;-72
2022/07/14 09:00:55;;;;;;;8.48;2.42;;;;;;;21.91;48.24;101919.72;5119755;28;20048;-73
2022/07/14 09:03:24;;;;;;;8.55;2.55;;;;;;;21.93;48.23;101927.66;5112047;28;20067;-72
2022/07/14 09:06:32;;;;;;;7.60;2.30;;;;;;;21.93;48.24;101920.25;5103206;28;20054;-73
2022/07/14 09:09:00;;;;;;;7.22;2.03;;;;;;;21.93;48.28;101920.25;5125413;28;20398;-72
2022/07/14 09:11:28;;;;;;;8.40;3.10;;;;;;;21.86;48.28;101899.72;5118825;28;20054;-73
2022/07/14 09:14:09;;;;;;;8.93;2.20;;;;;;;21.96;48.09;101914.25;5106396;28;20048;-72
2022/07/14 09:16:37;;;;;;;4.43;1.95;;;;;;;21.99;47.86;101915.63;5111115;28;20094;-72
2022/07/14 09:19:08;;;;;;;7.20;2.70;;;;;;;22.00;47.86;101911.78;5108329;28;20051;-71
2022/07/14 09:21:37;;;;;;;6.20;2.22;;;;;;;22.03;48.18;101906.63;5113242;28;20078;-72
2022/07/14 09:24:06;;;;;;;6.22;2.25;;;;;;;22.06;48.29;101914.28;5107424;28;20051;-72
2022/07/14 09:26:43;;;;;;;8.27;2.25;;;;;;;22.10;48.04;101906.34;5105629;28;20069;-72
2022/07/14 09:29:16;;;;;;;;;;;;;;;22.13;48.30;101914.00;5121092;28;20061;-73
2022/07/14 09:31:44;;;;;;;6.32;2.05;;;;;;;22.14;48.30;101915.66;5091923;28;19920;-73
2022/07/14 09:34:26;;;;;;;5.82;1.98;;;;;;;22.17;48.12;101911.56;5105146;28;20051;-73
2022/07/14 09:37:09;;;;;;;6.65;2.10;;;;;;;22.19;47.87;101903.88;5104125;28;20043;-73
2022/07/14 09:39:36;;;;;;;8.90;2.25;;;;;;;22.22;47.88;101900.59;5117660;28;20059;-73
2022/07/14 09:42:05;;;;;;;9.32;2.17;;;;;;;22.23;47.86;101913.19;5117438;28;20078;-73
2022/07/14 09:44:33;;;;;;;4.40;2.00;;;;;;;22.25;47.59;101902.78;5118617;28;20062;-73
2022/07/14 09:47:01;;;;;;;6.57;1.90;;;;;;;22.26;47.49;101901.69;5102751;28;20084;-73
2022/07/14 09:49:31;;;;;;;6.80;2.00;;;;;;;22.26;47.21;101901.69;5118804;28;20047;-73
2022/07/14 09:52:16;;;;;;;;;;;;;;;22.28;47.04;101894.84;5100669;28;20044;-72
2022/07/14 09:54:50;;;;;;;6.60;2.30;;;;;;;22.29;46.76;101898.41;5104701;28;19920;-72
2022/07/14 09:57:26;;;;;;;7.95;2.20;;;;;;;22.28;46.73;101897.59;5100478;28;20143;-72
2022/07/14 09:59:58;;;;;;;5.32;2.22;;;;;;;22.31;46.75;101905.25;5097871;28;20051;-72
2022/07/14 10:02:28;;;;;;;9.75;2.75;;;;;;;22.22;46.94;101887.72;5107049;28;20044;-72
2022/07/14 10:05:01;;;;;;;5.65;2.13;;;;;;;22.36;46.74;101905.25;5118894;28;20047;-72
2022/07/14 10:07:35;;;;;;;5.65;2.45;;;;;;;22.41;46.76;101896.22;5124520;28;20119;-72
2022/07/14 10:10:06;;;;;;;5.60;1.67;;;;;;;22.43;46.67;101904.16;5125012;28;20055;-73
2022/07/14 10:12:36;;;;;;;5.03;1.83;;;;;;;22.48;46.79;101904.16;5107242;28;20128;-73
2022/07/14 10:15:06;;;;;;;5.38;2.45;;;;;;;22.51;46.61;101907.16;5107052;28;20052;-73
2022/07/14 10:17:36;;;;;;;7.35;1.80;;;;;;;22.54;46.78;101903.00;5110084;28;20075;-73
2022/07/14 10:20:08;;;;;;;4.85;1.85;;;;;;;22.59;46.68;101903.00;5101750;28;20048;-72
2022/07/14 10:22:36;;;;;;;7.55;2.03;;;;;;;22.60;46.36;101905.47;5108877;28;20138;-72
2022/07/14 10:25:06;;;;;;;5.90;1.85;;;;;;;22.62;46.32;101894.22;5102416;28;20067;-72
2022/07/14 10:27:40;;;;;;;5.85;2.22;;;;;;;22.67;46.09;101902.44;5123338;28;20124;-72
2022/07/14 10:30:09;;;;;;;3.50;1.80;;;;;;;22.65;46.15;101893.66;5124535;28;20122;-72
2022/07/14 10:32:46;;;;;;;6.20;1.90;;;;;;;22.72;45.52;101908.72;5100553;28;20428;-72
2022/07/14 10:35:29;;;;;;;4.63;2.00;;;;;;;22.72;45.09;101916.94;5115709;28;20052;-73
2022/07/14 10:38:12;;;;;;;3.60;1.60;;;;;;;22.71;44.92;101915.31;5112365;28;20439;-73
2022/07/14 10:40:49;;;;;;;5.15;1.98;;;;;;;22.72;44.67;101916.13;5103286;28;20052;-73
2022/07/14 10:43:18;;;;;;;6.25;2.53;;;;;;;22.73;44.30;101917.78;5114409;28;20048;-73
2022/07/14 10:45:50;;;;;;;5.18;1.70;;;;;;;22.76;44.41;101927.38;5114232;28;20071;-73
2022/07/14 10:48:36;;;;;;;3.45;2.20;;;;;;;22.77;44.12;101918.84;5094056;28;20052;-72
2022/07/14 10:51:18;;;;;;;4.40;1.50;;;;;;;22.77;44.09;101918.03;5099291;28;20058;-72
2022/07/14 10:54:01;;;;;;;4.88;1.50;;;;;;;22.76;43.92;101908.19;5114213;28;20090;-72
2022/07/14 10:56:50;;;;;;;4.25;1.55;;;;;;;22.83;44.04;101912.31;5090232;28;20195;-72
2022/07/14 10:59:31;;;;;;;5.57;1.88;;;;;;;22.85;43.83;101914.75;5123010;28;20097;-71
2022/07/14 11:02:34;;;;;;;5.25;1.50;;;;;;;22.85;43.46;101912.84;5119731;28;20059;-73
2022/07/14 11:05:17;;;;;;;5.47;1.83;;;;;;;22.83;43.42;101908.72;5111066;28;20105;-73
2022/07/14 11:07:50;;;;;;;4.38;1.52;;;;;;;22.79;43.13;101899.41;5124156;28;20043;-72
2022/07/14 11:11:08;;;;;;;3.53;1.75;;;;;;;22.86;42.84;101911.75;5105689;28;20060;-72
2022/07/14 11:14:10;;;;;;;5.05;1.75;;;;;;;22.89;43.17;101913.09;5098706;28;20050;-72
2022/07/14 11:17:07;;;;;;;4.32;1.90;;;;;;;22.93;42.74;101911.44;5099285;28;20079;-72
2022/07/14 11:19:41;;;;;;;6.82;1.52;;;;;;;22.97;42.95;101920.75;5048758;28;20045;-72
2022/07/14 11:22:18;;;;;;;6.10;1.90;;;;;;;22.98;42.34;101920.47;5056751;28;20049;-73
2022/07/14 11:24:53;;;;;;;4.32;1.63;;;;;;;22.96;41.66;101919.94;5049516;28;20095;-72
2022/07/14 11:27:26;;;;;;;5.65;1.70;;;;;;;22.94;42.55;101913.91;5033608;28;20080;-73
2022/07/14 11:29:57;;;;;;;3.88;1.67;;;;;;;22.99;42.36;101908.41;5052971;28;20053;-73
2022/07/14 11:32:33;;;;;;;3.38;1.33;;;;;;;23.04;41.63;101907.56;5064107;28;20049;-73
2022/07/14 11:37:57;;;;;;;5.78;1.40;;;;;;;23.05;41.24;101901.00;5051122;28;20087;-73
2022/07/14 11:40:44;;;;;;;7.20;1.77;;;;;;;23.05;40.91;101896.31;5063960;28;20098;-73
2022/07/14 11:43:37;;;;;;;4.90;1.50;;;;;;;23.05;40.35;101901.81;5057494;28;20343;-73
2022/07/14 11:46:07;;;;;;;5.53;1.83;;;;;;;23.08;41.06;101916.88;5048906;28;20128;-73